Time;durP1;ratioP1;P1;durP2;ratioP2;P2;SDS_P1;SDS_P2;PMS_P1;PMS_P2;Temp;Humidity;BMP_temperature;BMP_pressure;BME280_temperature;BME280_humidity;BME280_pressure;Samples;Min_cycle;Max_cycle;Signal;HPM_P1;HPM_P2
2021/09/09 00:01:01;;;;;;;9.70;6.75;;;;;;;20.09;68.31;96448.03;5009752;28;20196;-59
2021/09/09 00:03:27;;;;;;;7.45;6.38;;;;;;;20.05;68.46;96449.72;5011698;28;20663;-59
2021/09/09 00:05:52;;;;;;;9.65;6.38;;;;;;;20.06;68.23;96446.75;5007083;28;20599;-59
2021/09/09 00:08:18;;;;;;;7.82;5.95;;;;;;;20.08;68.33;96446.44;5015161;28;20203;-59
2021/09/09 00:10:44;;;;;;;11.75;6.63;;;;;;;19.99;68.71;96449.03;5002747;28;20199;-59
2021/09/09 00:13:10;;;;;;;6.43;5.72;;;;;;;19.91;68.93;96441.72;5013377;28;20184;-59
2021/09/09 00:15:35;;;;;;;9.48;6.35;;;;;;;19.79;69.25;96446.72;5008940;28;20201;-61
2021/09/09 00:18:01;;;;;;;8.35;6.05;;;;;;;19.82;69.08;96440.81;5006844;28;20195;-59
2021/09/09 00:20:26;;;;;;;8.52;6.60;;;;;;;20.00;68.37;96441.84;5001725;28;20191;-61
2021/09/09 00:22:51;;;;;;;8.48;6.45;;;;;;;19.99;68.31;96441.03;5002480;28;20178;-59
2021/09/09 00:25:17;;;;;;;6.95;6.15;;;;;;;19.89;68.75;96439.34;5012711;28;20214;-60
2021/09/09 00:27:42;;;;;;;8.48;6.95;;;;;;;19.91;68.85;96431.88;5009285;28;20594;-59
2021/09/09 00:30:08;;;;;;;7.95;6.35;;;;;;;19.86;68.88;96434.63;5006358;28;20206;-59
2021/09/09 00:32:34;;;;;;;12.00;6.80;;;;;;;19.79;69.10;96439.53;5017585;28;20222;-60
2021/09/09 00:35:00;;;;;;;9.13;7.13;;;;;;;19.73;69.51;96439.91;5002728;28;20211;-59
2021/09/09 00:37:25;;;;;;;7.95;6.97;;;;;;;19.73;69.54;96443.34;5012448;28;20190;-59
2021/09/09 00:39:51;;;;;;;8.60;7.07;;;;;;;19.64;70.02;96439.00;5003022;28;20701;-63
2021/09/09 00:42:16;;;;;;;10.85;7.63;;;;;;;19.63;69.98;96435.56;5004665;28;20274;-60
2021/09/09 00:44:41;;;;;;;9.20;7.75;;;;;;;19.48;70.52;96435.81;5006757;28;20241;-60
2021/09/09 00:47:09;;;;;;;9.85;6.95;;;;;;;19.56;70.16;96427.16;5007456;28;20207;-60
2021/09/09 00:49:38;;;;;;;10.10;7.13;;;;;;;19.52;70.58;96434.16;5009828;28;20671;-60
2021/09/09 00:52:05;;;;;;;11.38;7.97;;;;;;;19.54;70.36;96433.88;5017134;28;20547;-63
2021/09/09 00:54:32;;;;;;;10.07;7.60;;;;;;;19.39;71.15;96430.34;5014908;28;20200;-60
2021/09/09 00:56:58;;;;;;;11.77;8.48;;;;;;;19.35;71.30;96424.03;4998800;28;20234;-60
2021/09/09 00:59:23;;;;;;;11.70;7.80;;;;;;;19.36;71.32;96425.63;5007068;28;20183;-60
2021/09/09 01:01:48;;;;;;;11.75;8.43;;;;;;;19.44;71.16;96429.50;5000127;28;20235;-60
2021/09/09 01:04:15;;;;;;;12.65;8.77;;;;;;;19.11;72.52;96428.69;5013675;28;20210;-61
2021/09/09 01:06:40;;;;;;;11.80;8.77;;;;;;;19.11;72.47;96418.81;5017708;28;20191;-60
2021/09/09 01:09:06;;;;;;;9.95;8.32;;;;;;;19.13;72.50;96434.50;5012526;28;20206;-62
2021/09/09 01:11:32;;;;;;;10.65;8.13;;;;;;;19.28;71.96;96422.84;5009626;28;20278;-60
2021/09/09 01:14:11;;;;;;;10.48;7.63;;;;;;;19.24;72.38;96424.50;5002028;28;20218;-60
2021/09/09 01:16:38;;;;;;;10.18;7.93;;;;;;;19.23;72.35;96428.22;5006493;28;20199;-60
2021/09/09 01:19:04;;;;;;;10.85;8.75;;;;;;;18.96;73.43;96418.28;4999576;28;20184;-61
2021/09/09 01:21:31;;;;;;;11.77;7.93;;;;;;;19.16;72.59;96412.66;4999847;28;20662;-60
2021/09/09 01:23:58;;;;;;;12.95;8.77;;;;;;;19.11;72.89;96405.53;5004270;28;20186;-60
2021/09/09 01:26:27;;;;;;;11.55;9.10;;;;;;;19.13;72.76;96415.88;5006664;28;20199;-60
2021/09/09 01:28:53;;;;;;;8.93;7.78;;;;;;;18.98;73.31;96414.28;5010038;28;20256;-60
2021/09/09 01:31:18;;;;;;;9.75;7.80;;;;;;;19.04;73.08;96407.81;5002227;28;20534;-60
2021/09/09 01:33:43;;;;;;;9.52;7.82;;;;;;;18.93;73.47;96414.34;5000657;28;20190;-66
2021/09/09 01:36:09;;;;;;;10.63;7.55;;;;;;;18.95;73.60;96412.16;5006038;28;20519;-60
2021/09/09 01:38:34;;;;;;;9.90;7.13;;;;;;;19.04;72.95;96402.50;4996804;28;20366;-60
2021/09/09 01:41:00;;;;;;;11.10;7.80;;;;;;;19.02;73.22;96401.19;5009704;28;20612;-60
2021/09/09 01:43:25;;;;;;;9.70;7.20;;;;;;;19.04;72.98;96405.16;4998197;28;20206;-60
2021/09/09 01:45:51;;;;;;;8.20;7.18;;;;;;;19.07;72.85;96404.56;4996232;28;20307;-60
2021/09/09 01:48:16;;;;;;;9.50;7.45;;;;;;;19.07;72.64;96404.56;4996286;28;20195;-60
2021/09/09 01:50:42;;;;;;;8.68;7.30;;;;;;;18.97;73.02;96399.41;5006143;28;20195;-60
2021/09/09 01:53:07;;;;;;;8.18;6.80;;;;;;;18.83;73.71;96405.75;5013740;28;20211;-60
2021/09/09 01:55:33;;;;;;;8.32;6.88;;;;;;;18.76;73.82;96400.00;4998121;28;20563;-61
2021/09/09 01:57:58;;;;;;;13.27;7.28;;;;;;;18.99;72.75;96401.78;5000320;28;20191;-60
2021/09/09 02:00:24;;;;;;;9.73;6.40;;;;;;;18.84;73.42;96402.78;5003849;28;20195;-60
2021/09/09 02:02:49;;;;;;;11.25;6.53;;;;;;;18.87;73.21;96396.13;5000286;28;20647;-60
2021/09/09 02:05:15;;;;;;;11.13;7.07;;;;;;;18.99;72.71;96393.81;4996716;28;20220;-60
2021/09/09 02:07:40;;;;;;;8.75;6.72;;;;;;;18.99;72.67;96401.78;4999608;28;20186;-60
2021/09/09 02:10:08;;;;;;;8.50;6.63;;;;;;;18.98;72.80;96392.22;5010952;28;20215;-60
2021/09/09 02:12:33;;;;;;;7.95;6.68;;;;;;;18.88;73.27;96389.72;4999666;28;20876;-60
2021/09/09 02:14:59;;;;;;;7.38;6.55;;;;;;;18.92;72.92;96396.03;5006383;28;20267;-60
2021/09/09 02:17:25;;;;;;;7.72;6.43;;;;;;;18.90;72.85;96391.00;4996664;28;20637;-60
2021/09/09 02:19:50;;;;;;;7.05;6.10;;;;;;;18.92;72.85;96393.38;4999400;28;20250;-60
2021/09/09 02:22:16;;;;;;;12.38;10.52;;;;;;;19.00;72.32;96393.50;4998681;28;20211;-60
2021/09/09 02:24:45;;;;;;;10.13;6.07;;;;;;;18.81;73.36;96390.09;5006229;28;20295;-64
2021/09/09 02:27:15;;;;;;;8.20;6.57;;;;;;;18.82;73.45;96391.66;5006200;28;20183;-60
2021/09/09 02:29:42;;;;;;;7.45;6.70;;;;;;;18.90;72.97;96398.97;4999166;28;20219;-60
2021/09/09 02:32:08;;;;;;;9.13;6.70;;;;;;;18.75;73.71;96393.09;4997992;28;20184;-60
2021/09/09 02:34:34;;;;;;;7.70;6.65;;;;;;;18.76;73.44;96395.47;5008428;28;20212;-60
2021/09/09 02:37:00;;;;;;;9.95;6.97;;;;;;;18.78;73.46;96392.53;5006960;28;20234;-60
2021/09/09 02:39:25;;;;;;;7.15;6.43;;;;;;;18.70;73.79;96396.63;4998604;28;20752;-60
2021/09/09 02:41:50;;;;;;;8.75;6.80;;;;;;;18.72;73.90;96394.47;5009641;28;20454;-60
2021/09/09 02:44:16;;;;;;;9.57;6.60;;;;;;;18.80;73.45;96393.03;4999900;28;20215;-60
2021/09/09 02:46:41;;;;;;;8.60;7.07;;;;;;;18.81;73.52;96390.09;5005214;28;20660;-60
2021/09/09 02:49:07;;;;;;;9.15;7.20;;;;;;;18.68;73.72;96386.28;4997511;28;20201;-60
2021/09/09 02:51:32;;;;;;;10.03;7.33;;;;;;;18.59;74.38;96389.88;4999468;28;20531;-60
2021/09/09 02:53:58;;;;;;;10.82;7.38;;;;;;;18.63;74.25;96388.22;4995378;28;20183;-61
2021/09/09 02:56:23;;;;;;;10.75;7.20;;;;;;;18.61;74.36;96385.84;5001215;28;20192;-60
2021/09/09 02:58:49;;;;;;;8.55;6.85;;;;;;;18.64;74.17;96385.28;4996510;28;20188;-60
2021/09/09 03:01:14;;;;;;;11.13;6.87;;;;;;;18.56;74.45;96387.78;4997344;28;20188;-60
2021/09/09 03:03:39;;;;;;;8.57;5.93;;;;;;;18.57;74.55;96384.84;5009137;28;20267;-60
2021/09/09 03:06:06;;;;;;;8.43;7.13;;;;;;;18.57;74.19;96379.53;5012099;28;20648;-60
2021/09/09 03:08:32;;;;;;;10.13;7.60;;;;;;;18.64;74.44;96385.28;5000894;28;20196;-61
2021/09/09 03:10:57;;;;;;;8.30;7.22;;;;;;;18.81;73.54;96376.81;4994784;28;20199;-61
2021/09/09 03:13:23;;;;;;;8.70;7.22;;;;;;;18.72;74.14;96377.75;5010473;28;20184;-60
2021/09/09 03:15:49;;;;;;;11.43;7.13;;;;;;;18.82;73.48;96373.09;5000445;28;20232;-61
2021/09/09 03:18:15;;;;;;;8.90;7.53;;;;;;;18.48;75.05;96377.78;5003052;28;20171;-60
2021/09/09 03:20:40;;;;;;;11.77;7.97;;;;;;;18.50;74.87;96373.75;4996687;28;20184;-60
2021/09/09 03:23:05;;;;;;;11.98;7.95;;;;;;;18.51;74.73;96371.91;4998629;28;20183;-60
2021/09/09 03:25:31;;;;;;;9.37;7.27;;;;;;;18.39;75.44;96368.91;5005183;28;20583;-60
2021/09/09 03:27:56;;;;;;;9.80;7.78;;;;;;;18.40;75.50;96370.47;4993182;28;20186;-60
2021/09/09 03:30:21;;;;;;;9.97;7.20;;;;;;;18.49;74.88;96366.09;4996388;28;20295;-60
2021/09/09 03:32:47;;;;;;;8.60;7.10;;;;;;;18.39;75.08;96366.25;5007841;28;20556;-60
2021/09/09 03:35:12;;;;;;;8.13;7.20;;;;;;;18.27;76.03;96364.81;5002467;28;20233;-61
2021/09/09 03:37:38;;;;;;;8.63;6.97;;;;;;;18.20;76.06;96364.34;5000590;28;20644;-60
2021/09/09 03:40:04;;;;;;;8.73;7.43;;;;;;;18.18;76.42;96355.88;5008368;28;20234;-65
2021/09/09 03:42:29;;;;;;;9.23;7.13;;;;;;;18.23;76.16;96358.47;4993758;28;20610;-60
2021/09/09 03:44:54;;;;;;;7.93;7.07;;;;;;;18.09;76.65;96359.47;5005192;28;20280;-60
2021/09/09 03:47:20;;;;;;;7.88;6.85;;;;;;;18.08;76.72;96358.66;5003100;28;20649;-60
2021/09/09 03:49:45;;;;;;;10.63;7.53;;;;;;;18.27;75.86;96356.84;5000830;28;20225;-60
2021/09/09 03:52:11;;;;;;;10.07;7.43;;;;;;;18.07;76.83;96364.25;4996906;28;20524;-60
2021/09/09 03:54:36;;;;;;;8.70;7.13;;;;;;;18.18;76.15;96363.84;5009504;28;20229;-60
2021/09/09 03:57:02;;;;;;;8.40;6.70;;;;;;;18.18;76.42;96365.69;4994086;28;20183;-60
2021/09/09 03:59:27;;;;;;;9.03;6.97;;;;;;;18.08;76.99;96368.50;5003285;28;20199;-60
2021/09/09 04:01:52;;;;;;;8.03;6.87;;;;;;;18.28;75.99;96365.56;4999835;28;20179;-60
2021/09/09 04:04:18;;;;;;;10.33;7.60;;;;;;;18.31;75.99;96362.38;4992712;28;20206;-60
2021/09/09 04:06:43;;;;;;;8.10;6.80;;;;;;;18.21;75.99;96365.94;5006115;28;20188;-60
2021/09/09 04:09:08;;;;;;;9.67;6.70;;;;;;;18.22;76.11;96367.50;5002634;28;20214;-61
2021/09/09 04:11:35;;;;;;;9.97;6.87;;;;;;;18.09;76.74;96372.72;4998614;28;20657;-60
2021/09/09 04:14:01;;;;;;;8.03;7.17;;;;;;;18.22;75.92;96377.34;5008340;28;20186;-60
2021/09/09 04:16:26;;;;;;;10.70;7.00;;;;;;;18.18;76.10;96377.09;4997188;28;20183;-60
2021/09/09 04:18:52;;;;;;;9.30;7.80;;;;;;;18.05;77.06;96377.03;5011937;28;20222;-60
2021/09/09 04:21:17;;;;;;;9.30;7.47;;;;;;;17.92;77.39;96369.75;5002109;28;20550;-61
2021/09/09 04:23:42;;;;;;;8.77;7.10;;;;;;;17.71;77.91;96372.63;4994431;28;20234;-61
2021/09/09 04:26:08;;;;;;;10.73;7.53;;;;;;;17.86;77.55;96369.81;5008900;28;20195;-60
2021/09/09 04:28:33;;;;;;;10.03;7.17;;;;;;;17.92;77.13;96365.22;4995265;28;20200;-61
2021/09/09 04:30:58;;;;;;;9.20;6.70;;;;;;;17.90;77.21;96369.22;5000518;28;20623;-60
2021/09/09 04:33:24;;;;;;;7.30;6.60;;;;;;;17.92;77.27;96364.44;5000520;28;20191;-61
2021/09/09 04:35:49;;;;;;;8.80;6.90;;;;;;;17.91;77.34;96368.94;4997574;28;20196;-60
2021/09/09 04:38:15;;;;;;;9.33;7.00;;;;;;;17.94;77.13;96368.41;5007866;28;20187;-61
2021/09/09 04:40:40;;;;;;;7.40;6.50;;;;;;;17.85;77.45;96370.09;4996964;28;20302;-61
2021/09/09 04:43:06;;;;;;;7.60;6.80;;;;;;;17.96;77.18;96371.53;5002857;28;20275;-61
2021/09/09 04:45:32;;;;;;;7.87;6.63;;;;;;;17.88;77.22;96371.38;5003865;28;20194;-60
2021/09/09 04:47:57;;;;;;;10.50;7.50;;;;;;;18.02;76.74;96373.06;5009224;28;20191;-65
2021/09/09 04:50:23;;;;;;;7.10;6.40;;;;;;;18.01;76.61;96371.47;5005669;28;20202;-61
2021/09/09 04:52:48;;;;;;;8.03;6.80;;;;;;;18.01;76.61;96365.38;5003793;28;20198;-61
2021/09/09 04:55:13;;;;;;;8.60;6.03;;;;;;;17.91;77.08;96368.94;5005137;28;20191;-60
2021/09/09 04:57:39;;;;;;;8.70;7.30;;;;;;;18.05;76.38;96371.72;5014800;28;20183;-62
2021/09/09 05:00:05;;;;;;;6.97;6.20;;;;;;;17.93;76.83;96376.63;4999308;28;20212;-60
2021/09/09 05:02:30;;;;;;;7.50;6.63;;;;;;;18.07;76.16;96377.50;5008373;28;20192;-60
2021/09/09 05:04:55;;;;;;;7.80;6.80;;;;;;;18.18;75.63;96374.47;5007369;28;20216;-60
2021/09/09 05:07:21;;;;;;;9.10;7.07;;;;;;;18.21;75.55;96376.56;5001795;28;20231;-58
2021/09/09 05:09:46;;;;;;;8.50;7.17;;;;;;;18.31;75.01;96372.19;5012676;28;20536;-60
2021/09/09 05:12:12;;;;;;;8.90;6.73;;;;;;;18.33;74.74;96376.16;4996925;28;20219;-60
2021/09/09 05:14:37;;;;;;;11.40;7.00;;;;;;;18.41;74.39;96380.78;5000658;28;20184;-60
2021/09/09 05:17:03;;;;;;;7.30;6.50;;;;;;;18.51;73.94;96380.66;5004511;28;20223;-60
2021/09/09 05:19:28;;;;;;;9.70;7.20;;;;;;;18.55;73.83;96379.06;5008149;28;21891;-60
2021/09/09 05:21:53;;;;;;;7.53;6.60;;;;;;;18.59;73.33;96380.06;5010631;28;20195;-60
2021/09/09 05:24:19;;;;;;;7.50;6.30;;;;;;;18.49;73.66;96374.06;5000698;28;20186;-60
2021/09/09 05:26:44;;;;;;;9.07;6.80;;;;;;;18.61;73.38;96382.44;5007506;28;20176;-60
2021/09/09 05:29:09;;;;;;;8.67;6.40;;;;;;;18.74;72.95;96379.03;5006314;28;20687;-60
2021/09/09 05:31:35;;;;;;;11.03;6.70;;;;;;;18.69;73.02;96382.56;5011049;28;20183;-60
2021/09/09 05:34:00;;;;;;;9.35;6.50;;;;;;;18.93;72.17;96387.78;4999396;28;20246;-60
2021/09/09 05:36:26;;;;;;;7.63;6.65;;;;;;;19.01;71.64;96395.09;5009575;28;20309;-60
2021/09/09 05:38:51;;;;;;;7.25;6.47;;;;;;;19.00;71.87;96398.81;4996009;28;20232;-60
2021/09/09 05:41:16;;;;;;;7.00;6.28;;;;;;;19.23;71.03;96399.00;5006052;28;20627;-64
2021/09/09 05:43:42;;;;;;;7.72;6.07;;;;;;;19.36;70.50;96393.72;4999072;28;20195;-60
2021/09/09 05:46:07;;;;;;;6.93;5.88;;;;;;;19.36;70.41;96401.69;5008490;28;20172;-60
2021/09/09 05:48:32;;;;;;;9.48;6.75;;;;;;;19.54;69.82;96394.78;4996333;28;20728;-61
2021/09/09 05:50:58;;;;;;;7.82;6.07;;;;;;;19.68;68.72;96394.78;5002690;28;20183;-61
2021/09/09 05:53:24;;;;;;;8.25;5.68;;;;;;;19.74;68.90;96397.06;5000042;28;20194;-61
2021/09/09 05:55:49;;;;;;;6.72;5.97;;;;;;;19.96;68.19;96399.03;5007591;28;20211;-61
2021/09/09 05:58:14;;;;;;;7.18;5.90;;;;;;;20.14;67.22;96400.81;4999422;28;20180;-61
2021/09/09 06:00:40;;;;;;;12.50;6.30;;;;;;;20.31;66.86;96397.56;5010391;28;20535;-61
2021/09/09 06:03:05;;;;;;;7.65;6.05;;;;;;;20.67;65.57;96398.41;4997002;28;20204;-61
2021/09/09 06:05:34;;;;;;;6.15;5.55;;;;;;;20.61;65.62;96402.28;5009150;28;20198;-61
2021/09/09 06:07:59;;;;;;;7.10;5.97;;;;;;;20.92;64.37;96407.72;4996999;28;20238;-62
2021/09/09 06:10:25;;;;;;;8.10;5.78;;;;;;;21.15;63.69;96413.88;5005248;28;20238;-61
2021/09/09 06:12:50;;;;;;;8.82;6.20;;;;;;;21.33;63.00;96415.56;5000775;28;20250;-61
2021/09/09 06:15:15;;;;;;;6.50;5.78;;;;;;;21.54;62.48;96413.97;5011040;28;20215;-61
2021/09/09 06:17:41;;;;;;;8.35;5.78;;;;;;;21.69;62.40;96420.00;4999619;28;20635;-61
2021/09/09 06:20:07;;;;;;;8.75;6.25;;;;;;;21.59;62.66;96415.72;5008196;28;20215;-61
2021/09/09 06:22:32;;;;;;;9.63;6.38;;;;;;;21.64;62.27;96410.25;5005852;28;20219;-61
2021/09/09 06:24:58;;;;;;;8.80;6.03;;;;;;;21.70;62.20;96416.25;4999053;28;20699;-61
2021/09/09 06:27:23;;;;;;;8.02;6.40;;;;;;;21.86;61.59;96417.41;5009498;28;20180;-61
2021/09/09 06:29:48;;;;;;;6.80;6.10;;;;;;;22.02;61.18;96417.81;5002112;28;20261;-62
2021/09/09 06:32:14;;;;;;;7.68;5.72;;;;;;;22.28;60.26;96421.38;5004758;28;20183;-62
2021/09/09 06:34:39;;;;;;;7.03;5.85;;;;;;;22.40;59.83;96426.91;5007444;28;20197;-61
2021/09/09 06:37:05;;;;;;;8.85;5.80;;;;;;;22.45;59.20;96428.66;5006309;28;20191;-61
2021/09/09 06:39:30;;;;;;;7.30;5.53;;;;;;;22.08;60.25;96428.06;5006243;28;20234;-61
2021/09/09 06:41:55;;;;;;;6.78;5.80;;;;;;;22.11;59.71;96424.00;5011703;28;20194;-61
2021/09/09 06:44:21;;;;;;;6.63;5.55;;;;;;;22.15;60.39;96427.63;4996360;28;20886;-61
2021/09/09 06:46:46;;;;;;;6.70;5.70;;;;;;;22.23;59.96;96425.00;5010105;28;20189;-62
2021/09/09 06:49:11;;;;;;;7.60;5.28;;;;;;;22.46;59.44;96428.31;5002450;28;20206;-61
2021/09/09 06:51:38;;;;;;;6.60;5.57;;;;;;;22.21;60.41;96426.38;5001362;28;20179;-62
2021/09/09 06:54:04;;;;;;;6.65;5.45;;;;;;;22.43;59.79;96428.97;5007854;28;20190;-62
2021/09/09 06:56:30;;;;;;;6.72;5.45;;;;;;;22.26;60.40;96419.00;5006716;28;20199;-62
2021/09/09 06:58:56;;;;;;;7.95;5.88;;;;;;;22.29;60.23;96422.97;5002494;28;20187;-64
2021/09/09 07:01:21;;;;;;;8.18;5.60;;;;;;;22.15;60.70;96427.63;5005404;28;20187;-61
2021/09/09 07:03:47;;;;;;;6.13;5.20;;;;;;;22.46;60.03;96424.88;4997030;28;20432;-62
2021/09/09 07:06:14;;;;;;;6.43;5.07;;;;;;;22.78;59.75;96422.59;5002521;28;20274;-62
2021/09/09 07:08:39;;;;;;;14.18;5.65;;;;;;;22.88;58.90;96424.19;5002524;28;20191;-61
2021/09/09 07:11:05;;;;;;;7.70;5.30;;;;;;;22.91;58.86;96420.06;4993650;28;20192;-69
2021/09/09 07:13:31;;;;;;;7.80;5.22;;;;;;;22.98;58.20;96417.72;5005580;28;20198;-61
2021/09/09 07:15:57;;;;;;;7.43;5.18;;;;;;;22.90;58.57;96426.56;5007457;28;20214;-61
2021/09/09 07:18:24;;;;;;;9.85;5.80;;;;;;;23.00;58.57;96416.31;5002389;28;20187;-61
2021/09/09 07:20:50;;;;;;;5.63;5.13;;;;;;;22.84;58.96;96422.44;5000797;28;20194;-62
2021/09/09 07:23:15;;;;;;;6.32;5.43;;;;;;;22.70;59.72;96430.56;5003344;28;20191;-61
2021/09/09 07:25:40;;;;;;;7.85;5.63;;;;;;;;;;5008473;28;20184;-62
2021/09/09 07:28:06;;;;;;;7.57;5.50;;;;;;;23.03;58.82;96434.41;4994060;28;20184;-62
2021/09/09 07:30:32;;;;;;;7.95;4.97;;;;;;;23.21;58.05;96424.50;4993988;28;20294;-61
2021/09/09 07:32:58;;;;;;;7.32;5.65;;;;;;;23.29;58.22;96426.38;4996751;28;20556;-61
2021/09/09 07:35:23;;;;;;;6.10;5.50;;;;;;;23.58;57.02;96426.50;4997356;28;20188;-61
2021/09/09 07:37:48;;;;;;;6.25;5.20;;;;;;;23.63;57.07;96431.69;5002414;28;20696;-61
2021/09/09 07:40:14;;;;;;;6.15;5.53;;;;;;;23.53;57.19;96433.91;5003210;28;20223;-63
2021/09/09 07:42:39;;;;;;;7.45;5.38;;;;;;;23.78;57.01;96433.09;5006361;28;20194;-62
2021/09/09 07:45:05;;;;;;;6.72;5.18;;;;;;;24.01;56.50;96437.09;5001499;28;20179;-62
2021/09/09 07:47:31;;;;;;;8.25;5.85;;;;;;;24.33;55.74;96441.06;5003898;28;20544;-62
2021/09/09 07:49:57;;;;;;;7.97;4.88;;;;;;;24.37;55.23;96447.34;5000733;28;20199;-62
2021/09/09 07:52:23;;;;;;;6.18;5.05;;;;;;;24.57;54.93;96439.69;5001425;28;20195;-62
2021/09/09 07:54:49;;;;;;;8.48;5.40;;;;;;;24.76;53.96;96446.19;5003514;28;20187;-62
2021/09/09 07:57:14;;;;;;;6.28;5.63;;;;;;;24.84;53.94;96450.72;4998284;28;20183;-61
2021/09/09 07:59:40;;;;;;;7.22;5.72;;;;;;;24.88;53.85;96452.72;5026518;28;20552;-62
2021/09/09 08:02:06;;;;;;;13.13;4.85;;;;;;;25.03;53.87;96449.50;5000498;28;20215;-63
2021/09/09 08:04:31;;;;;;;5.93;5.28;;;;;;;25.19;52.90;96453.16;5001113;28;20655;-61
2021/09/09 08:06:56;;;;;;;6.38;4.78;;;;;;;25.30;52.92;96461.59;5005322;28;20183;-62
2021/09/09 08:09:22;;;;;;;6.88;5.18;;;;;;;25.81;52.20;96454.97;5004483;28;20285;-61
2021/09/09 08:11:47;;;;;;;5.28;4.68;;;;;;;26.32;50.86;96467.06;5003181;28;20192;-62
2021/09/09 08:14:13;;;;;;;7.70;5.40;;;;;;;26.29;50.71;96462.38;4999856;28;20184;-66
2021/09/09 08:16:38;;;;;;;7.80;5.70;;;;;;;26.47;50.12;96464.47;5007605;28;20718;-60
2021/09/09 08:19:03;;;;;;;7.22;4.85;;;;;;;26.35;50.52;96466.41;5007188;28;20650;-60
2021/09/09 08:21:29;;;;;;;6.70;4.90;;;;;;;26.13;51.37;96464.91;5007677;28;20631;-59
2021/09/09 08:23:54;;;;;;;7.28;5.10;;;;;;;26.07;51.50;96475.06;4998475;28;20206;-60
2021/09/09 08:26:20;;;;;;;5.57;4.75;;;;;;;26.27;51.30;96475.34;5002872;28;20267;-60
2021/09/09 08:28:45;;;;;;;6.07;4.85;;;;;;;26.36;50.34;96470.66;5005194;28;20260;-61
2021/09/09 08:31:11;;;;;;;7.28;5.68;;;;;;;26.52;49.37;96474.25;5005299;28;20271;-61
2021/09/09 08:33:38;;;;;;;5.60;4.80;;;;;;;26.37;48.23;96482.97;5014541;28;20262;-60
2021/09/09 08:36:05;;;;;;;5.28;4.28;;;;;;;26.51;47.47;96474.56;5006915;28;20195;-61
2021/09/09 08:38:30;;;;;;;5.28;4.30;;;;;;;26.62;47.04;96475.69;5006076;28;20218;-60
2021/09/09 08:40:56;;;;;;;5.03;4.55;;;;;;;26.49;46.93;96472.22;4997440;28;20254;-62
2021/09/09 08:43:21;;;;;;;4.85;4.35;;;;;;;26.33;47.32;96480.16;5004978;28;20551;-61
2021/09/09 08:45:51;;;;;;;4.97;4.50;;;;;;;26.30;47.64;96488.13;5016306;28;20264;-61
2021/09/09 08:48:17;;;;;;;5.30;4.32;;;;;;;26.25;47.47;96485.66;5015846;28;20187;-60
2021/09/09 08:50:43;;;;;;;5.53;4.53;;;;;;;26.42;47.57;96488.91;5008767;28;20219;-60
2021/09/09 08:53:09;;;;;;;6.50;4.90;;;;;;;26.46;47.93;96489.81;5013493;28;20202;-61
2021/09/09 08:55:34;;;;;;;5.10;4.60;;;;;;;26.56;47.76;96487.78;4996985;28;20176;-60
2021/09/09 08:58:02;;;;;;;5.30;4.60;;;;;;;26.62;47.24;96492.59;5003200;28;20183;-61
2021/09/09 09:00:28;;;;;;;6.53;4.03;;;;;;;26.85;46.92;96496.41;5004502;28;20714;-61
2021/09/09 09:02:55;;;;;;;5.50;4.40;;;;;;;26.66;46.71;96496.19;5009891;28;20195;-61
2021/09/09 09:05:23;;;;;;;5.70;4.63;;;;;;;26.56;47.07;96493.94;5002458;28;20262;-61
2021/09/09 09:07:59;;;;;;;5.70;4.55;;;;;;;26.38;47.54;96503.34;4997172;28;20234;-60
2021/09/09 09:10:25;;;;;;;6.70;4.43;;;;;;;26.43;47.53;96500.44;4999973;28;20215;-60
2021/09/09 09:12:51;;;;;;;4.75;4.35;;;;;;;26.23;47.52;96498.63;4996110;28;20230;-61
2021/09/09 09:15:17;;;;;;;4.78;4.38;;;;;;;25.81;48.47;96498.72;5007652;28;20188;-60
2021/09/09 09:17:53;;;;;;;5.53;4.30;;;;;;;25.64;49.29;96494.31;5006850;28;20188;-60
2021/09/09 09:20:19;;;;;;;4.97;4.22;;;;;;;25.84;48.84;96498.06;4996519;28;20214;-60
2021/09/09 09:22:44;;;;;;;7.22;4.45;;;;;;;26.06;49.01;96499.59;5012234;28;20183;-60
2021/09/09 09:25:10;;;;;;;5.07;4.57;;;;;;;26.12;48.98;96500.16;5012616;28;20185;-61
2021/09/09 09:27:45;;;;;;;5.47;4.93;;;;;;;25.78;49.39;96503.97;5008726;28;20641;-61
2021/09/09 09:30:12;;;;;;;7.38;4.75;;;;;;;25.79;49.40;96500.97;5005823;28;20214;-60
2021/09/09 09:32:46;;;;;;;5.05;4.55;;;;;;;25.62;49.95;96496.56;5001023;28;20188;-60
2021/09/09 09:35:17;;;;;;;5.43;4.60;;;;;;;25.63;50.31;96497.34;5012371;28;20302;-60
2021/09/09 09:37:54;;;;;;;4.55;4.10;;;;;;;25.66;51.05;96499.34;5000343;28;20245;-60
2021/09/09 09:40:30;;;;;;;5.25;4.25;;;;;;;25.67;50.90;96501.72;5026933;28;20296;-60
2021/09/09 09:42:57;;;;;;;5.10;4.40;;;;;;;25.63;50.31;96500.03;4998877;28;20187;-60
2021/09/09 09:45:23;;;;;;;6.32;5.00;;;;;;;25.86;50.05;96497.72;5011171;28;20266;-60
2021/09/09 09:47:48;;;;;;;5.45;4.68;;;;;;;26.11;50.42;96498.56;4997159;28;20625;-60
2021/09/09 09:50:17;;;;;;;6.82;4.72;;;;;;;26.20;49.76;96493.88;5006432;28;20211;-60
2021/09/09 09:52:42;;;;;;;5.40;4.50;;;;;;;26.26;49.73;96498.75;4996494;28;20196;-60
2021/09/09 09:55:09;;;;;;;8.00;4.70;;;;;;;26.27;50.12;96499.53;5007171;28;20490;-60
2021/09/09 09:57:51;;;;;;;6.53;4.80;;;;;;;26.11;50.05;96490.50;5000349;28;20188;-60
2021/09/09 10:00:16;;;;;;;5.88;5.00;;;;;;;26.28;49.61;96495.72;4999715;28;20532;-60
2021/09/09 10:02:42;;;;;;;4.70;4.18;;;;;;;26.49;49.26;96499.09;5006326;28;20195;-60
2021/09/09 10:05:10;;;;;;;4.82;4.40;;;;;;;26.46;49.46;96494.41;5004839;28;20660;-61
2021/09/09 10:07:36;;;;;;;4.95;4.22;;;;;;;26.40;48.79;96499.22;5000479;28;20545;-60
2021/09/09 10:10:02;;;;;;;5.85;4.57;;;;;;;26.47;48.26;96499.41;4998121;28;20342;-60
2021/09/09 10:12:28;;;;;;;6.00;4.82;;;;;;;26.40;48.99;96493.06;5008721;28;20206;-61
2021/09/09 10:14:56;;;;;;;5.15;4.65;;;;;;;26.46;48.57;96497.88;5001142;28;20278;-61
2021/09/09 10:17:23;;;;;;;7.55;4.90;;;;;;;26.53;48.83;96493.84;5006577;28;20545;-61
2021/09/09 10:19:49;;;;;;;5.05;4.50;;;;;;;26.49;49.19;96499.88;4998420;28;20191;-60
2021/09/09 10:22:17;;;;;;;5.60;4.63;;;;;;;26.38;49.75;96498.75;5011094;28;20282;-61
2021/09/09 10:24:44;;;;;;;6.53;5.03;;;;;;;26.46;50.14;96497.09;5009836;28;20180;-60
2021/09/09 10:27:15;;;;;;;5.38;4.88;;;;;;;26.44;50.01;96493.94;5002034;28;20196;-60
2021/09/09 10:29:59;;;;;;;5.40;4.88;;;;;;;26.54;49.93;96492.72;5003159;28;20208;-61
2021/09/09 10:32:37;;;;;;;4.90;4.35;;;;;;;26.34;49.34;96492.50;5010529;28;20570;-60
2021/09/09 10:35:15;;;;;;;5.40;4.55;;;;;;;26.72;48.27;96491.38;5000532;28;20211;-60
2021/09/09 10:37:50;;;;;;;5.82;4.50;;;;;;;26.96;48.33;96493.28;5003548;28;20180;-60
2021/09/09 10:40:28;;;;;;;4.40;4.00;;;;;;;26.89;48.54;96491.94;5009061;28;20293;-61
2021/09/09 10:42:55;;;;;;;4.82;4.40;;;;;;;27.00;47.64;96489.56;4999313;28;20195;-60
2021/09/09 10:45:36;;;;;;;4.47;4.07;;;;;;;27.08;47.61;96494.06;5005508;28;20188;-60
2021/09/09 10:48:14;;;;;;;4.20;3.80;;;;;;;27.31;46.51;96487.00;5008346;28;20195;-60
2021/09/09 10:50:40;;;;;;;5.78;4.43;;;;;;;27.35;46.73;96487.13;4995378;28;20207;-60
2021/09/09 10:53:08;;;;;;;4.05;3.75;;;;;;;27.13;46.05;96485.75;5000707;28;20266;-60
2021/09/09 10:55:40;;;;;;;4.13;3.72;;;;;;;27.18;45.64;96482.03;4999195;28;20586;-60
2021/09/09 10:58:12;;;;;;;4.45;4.05;;;;;;;27.33;45.41;96485.88;5009330;28;20679;-60
2021/09/09 11:01:05;;;;;;;4.05;3.65;;;;;;;26.91;46.19;96480.84;5010661;28;20202;-60
2021/09/09 11:03:33;;;;;;;4.18;3.80;;;;;;;26.93;46.59;96483.19;5004808;28;20642;-60
2021/09/09 11:05:59;;;;;;;3.70;3.40;;;;;;;27.00;46.49;96475.31;4999404;28;20224;-60
2021/09/09 11:08:28;;;;;;;4.70;3.70;;;;;;;27.02;46.47;96467.72;5010150;28;20274;-61
2021/09/09 11:10:54;;;;;;;4.10;3.70;;;;;;;26.95;46.42;96472.88;4996909;28;20192;-60
2021/09/09 11:13:27;;;;;;;4.28;3.78;;;;;;;27.03;46.08;96463.91;4997831;28;20250;-60
2021/09/09 11:15:52;;;;;;;4.03;3.72;;;;;;;27.03;45.94;96455.84;4990998;28;20210;-62
2021/09/09 11:18:29;;;;;;;3.88;3.45;;;;;;;26.83;46.47;96449.44;5001768;28;20184;-63
2021/09/09 11:21:07;;;;;;;4.28;3.88;;;;;;;26.91;46.60;96455.84;5008906;28;20186;-63
2021/09/09 11:23:35;;;;;;;5.45;3.42;;;;;;;27.12;46.58;96462.63;4999340;28;20198;-61
2021/09/09 11:26:14;;;;;;;3.65;3.35;;;;;;;27.11;46.29;96462.97;4996928;28;20601;-59
2021/09/09 11:28:40;;;;;;;4.43;3.70;;;;;;;27.08;46.18;96460.97;5004690;28;20176;-60